KMFE

Mc Allen Miller International Airport

Mc Allen, Texas, USA
METAR KMFE 192253Z 14021KT 10SM CLR 38/22 A2979 RMK AO2 PK WND 11030/2221 SLP086 T03780222
Observed Flight Rules
Aug-19 @ 22:53 UTC (14 minutes ago) Visual Flight Rules
Wind Visibility Clouds
140° at 21 knots 10 miles
  • Clear skies
Temperatures Readings
Current 38°C / 100°F
Dewpoint 22°C / 72°F
Humidity 40%
Altimeter 29.79" Hg
Pressure 1008.6 hPa
Elevation 38
METAR KMFE 192253Z 14021KT 10SM CLR 38/22 A2979 RMK AO2 PK WND 11030/2221 SLP086 T03780222
Observed Flight Rules
Aug-19 @ 22:53 UTC
(14 minutes ago)
VFR
Wind Visibility
140° at 21 knots 10 miles
Clouds
  • Clear skies
Temperature Dewpoint
38°C / 100°F 22°C / 72°F
Humidity Altimeter Pressure
40% 29.79" Hg 1008.6 hPa